Time;durP1;ratioP1;P1;durP2;ratioP2;P2;SDS_P1;SDS_P2;PMS_P1;PMS_P2;Temp;Humidity;BMP_temperature;BMP_pressure;BME280_temperature;BME280_humidity;BME280_pressure;Samples;Min_cycle;Max_cycle;Signal;HPM_P1;HPM_P2
2021/10/10 00:00:45;;;;;;;32.03;17.65;;;;;;;;;;5051043;28;20113;-60
2021/10/10 00:03:11;;;;;;;35.28;19.20;;;;;;;;;;5052847;28;20025;-59
2021/10/10 00:05:37;;;;;;;33.20;17.98;;;;;;;;;;5051940;28;20299;-54
2021/10/10 00:08:03;;;;;;;35.13;18.45;;;;;;;;;;5051242;28;20120;-58
2021/10/10 00:10:30;;;;;;;31.20;16.35;;;;;;;;;;5050619;28;20551;-58
2021/10/10 00:12:56;;;;;;;35.97;18.15;;;;;;;;;;5052820;28;20021;-59
2021/10/10 00:15:22;;;;;;;32.30;17.60;;;;;;;;;;5052375;28;20104;-57
2021/10/10 00:17:48;;;;;;;34.03;17.35;;;;;;;;;;5050975;28;20052;-58
2021/10/10 00:20:15;;;;;;;31.67;18.42;;;;;;;;;;5051954;28;20393;-56
2021/10/10 00:22:41;;;;;;;33.67;18.25;;;;;;;;;;5052298;28;20025;-56
2021/10/10 00:25:07;;;;;;;34.00;18.02;;;;;;;;;;5050995;28;20051;-56
2021/10/10 00:27:34;;;;;;;35.10;19.00;;;;;;;;;;5050917;28;20021;-54
2021/10/10 00:30:01;;;;;;;36.63;18.00;;;;;;;;;;5050730;28;20090;-58
2021/10/10 00:32:27;;;;;;;32.95;18.35;;;;;;;;;;5051035;28;20044;-56
2021/10/10 00:34:53;;;;;;;33.53;18.05;;;;;;;;;;5050876;28;20063;-55
2021/10/10 00:37:19;;;;;;;31.35;18.25;;;;;;;;;;5050884;28;20027;-58
2021/10/10 00:39:45;;;;;;;32.60;17.60;;;;;;;;;;5051709;28;20029;-58
2021/10/10 00:42:11;;;;;;;33.78;18.85;;;;;;;;;;5052155;28;20378;-54
2021/10/10 00:44:37;;;;;;;34.67;18.48;;;;;;;;;;5052193;28;20017;-50
2021/10/10 00:47:04;;;;;;;37.42;18.25;;;;;;;;;;5050536;28;20032;-58
2021/10/10 00:49:30;;;;;;;33.53;19.30;;;;;;;;;;5051668;28;20029;-57
2021/10/10 00:51:58;;;;;;;34.00;19.23;;;;;;;;;;5050383;28;20025;-57
2021/10/10 00:54:24;;;;;;;32.53;17.55;;;;;;;;;;5051854;28;20022;-58
2021/10/10 00:56:51;;;;;;;33.85;18.58;;;;;;;;;;5051753;28;20033;-57
2021/10/10 00:59:21;;;;;;;35.17;17.73;;;;;;;;;;5051683;28;20064;-54
2021/10/10 01:01:48;;;;;;;53.92;34.78;;;;;;;;;;5050282;28;20199;-58
2021/10/10 01:04:14;;;;;;;48.47;33.00;;;;;;;;;;5051757;28;20028;-56
2021/10/10 01:06:40;;;;;;;37.97;22.33;;;;;;;;;;5050510;28;20033;-58
2021/10/10 01:09:06;;;;;;;39.30;23.25;;;;;;;;;;5051489;28;20025;-53
2021/10/10 01:11:32;;;;;;;35.85;18.27;;;;;;;;;;5062839;23;20041;-59
2021/10/10 01:13:58;;;;;;;34.50;18.95;;;;;;;;;;5031737;28;20032;-58
2021/10/10 01:16:24;;;;;;;29.20;16.95;;;;;;;;;;5030469;28;20163;-60
2021/10/10 01:18:50;;;;;;;38.17;19.25;;;;;;;;;;5034462;28;20100;-60
2021/10/10 01:21:18;;;;;;;34.47;18.88;;;;;;;;;;5033894;28;20497;-60
2021/10/10 01:23:43;;;;;;;34.63;18.88;;;;;;;;;;5035304;28;20021;-60
2021/10/10 01:26:09;;;;;;;33.95;18.83;;;7.90;99.90;;;;;;5034054;28;20495;-58
2021/10/10 01:28:35;;;;;;;38.00;20.75;;;6.40;99.90;;;;;;5035519;28;20100;-58
2021/10/10 01:31:00;;;;;;;41.22;21.55;;;6.30;99.90;;;;;;5033643;28;20036;-60
2021/10/10 01:33:26;;;;;;;37.83;20.58;;;6.30;99.90;;;;;;5033923;28;20053;-60
2021/10/10 01:35:51;;;;;;;33.30;19.67;;;6.20;99.90;;;;;;5035547;28;20045;-59
2021/10/10 01:38:18;;;;;;;38.08;18.52;;;6.20;99.90;;;;;;5034074;28;20048;-60
2021/10/10 01:40:45;;;;;;;36.53;19.58;;;6.20;99.90;;;;;;5034919;28;20377;-60
2021/10/10 01:43:12;;;;;;;33.05;18.90;;;6.20;99.90;;;;;;5035087;28;20018;-60
2021/10/10 01:45:37;;;;;;;29.27;18.40;;;6.20;99.90;;;;;;5033634;28;20024;-56
2021/10/10 01:48:04;;;;;;;36.05;19.20;;;6.20;99.90;;;;;;5034645;28;20029;-58
2021/10/10 01:50:32;;;;;;;36.38;19.60;;;6.20;99.90;;;;;;5034825;28;20049;-56
2021/10/10 01:52:58;;;;;;;33.97;19.37;;;6.10;99.90;;;;;;5034714;28;20465;-55
2021/10/10 01:55:24;;;;;;;35.38;19.17;;;6.10;99.90;;;;;;5033449;28;20120;-56
2021/10/10 01:57:49;;;;;;;34.92;19.95;;;6.10;99.90;;;;;;5034620;28;20033;-58
2021/10/10 02:00:15;;;;;;;36.45;20.00;;;6.10;99.90;;;;;;5034142;28;20374;-57
2021/10/10 02:02:41;;;;;;;33.60;20.08;;;6.10;99.90;;;;;;5034460;28;20083;-54
2021/10/10 02:05:08;;;;;;;35.88;19.42;;;6.10;99.90;;;;;;5034477;28;20501;-58
2021/10/10 02:07:33;;;;;;;36.65;20.67;;;6.10;99.90;;;;;;5034490;28;20096;-57
2021/10/10 02:09:59;;;;;;;37.08;21.42;;;6.10;99.90;;;;;;5034196;28;20057;-56
2021/10/10 02:12:24;;;;;;;37.15;19.52;;;6.10;99.90;;;;;;5032996;28;20029;-56
2021/10/10 02:14:50;;;;;;;32.38;18.48;;;6.10;99.90;;;;;;5033251;28;20034;-55
2021/10/10 02:17:16;;;;;;;36.38;20.95;;;6.00;99.90;;;;;;5034510;28;20112;-58
2021/10/10 02:19:41;;;;;;;32.60;18.92;;;6.00;99.90;;;;;;5033883;28;20079;-59
2021/10/10 02:22:07;;;;;;;36.42;20.45;;;6.00;99.90;;;;;;5034427;28;20481;-57
2021/10/10 02:24:32;;;;;;;34.65;19.35;;;5.90;99.90;;;;;;5033046;28;20473;-59
2021/10/10 02:26:58;;;;;;;38.05;19.10;;;6.00;99.90;;;;;;5034290;28;20021;-59
2021/10/10 02:29:25;;;;;;;36.60;19.00;;;6.00;99.90;;;;;;5033731;28;20104;-55
2021/10/10 02:31:50;;;;;;;33.95;18.85;;;6.00;99.90;;;;;;5034024;28;20193;-59
2021/10/10 02:34:18;;;;;;;35.35;19.58;;;5.90;99.90;;;;;;5034148;28;20025;-57
2021/10/10 02:36:44;;;;;;;42.40;21.60;;;5.90;99.90;;;;;;5032499;28;20033;-55
2021/10/10 02:39:10;;;;;;;36.22;19.63;;;5.80;99.90;;;;;;5033743;28;20311;-59
2021/10/10 02:41:35;;;;;;;37.50;19.15;;;5.80;99.90;;;;;;5032474;28;20450;-57
2021/10/10 02:44:01;;;;;;;32.65;19.10;;;5.80;99.90;;;;;;5032644;28;20514;-56
2021/10/10 02:46:28;;;;;;;34.35;18.90;;;5.80;99.90;;;;;;5033647;28;20045;-57
2021/10/10 02:48:54;;;;;;;35.75;20.58;;;5.70;99.90;;;;;;5032527;28;20067;-57
2021/10/10 02:51:19;;;;;;;32.53;19.80;;;5.80;99.90;;;;;;5032972;28;20029;-58
2021/10/10 02:53:45;;;;;;;34.08;19.10;;;5.80;99.90;;;;;;5033659;28;20405;-59
2021/10/10 02:56:11;;;;;;;35.17;18.38;;;5.80;99.90;;;;;;5032479;28;20032;-59
2021/10/10 02:58:36;;;;;;;37.30;18.60;;;5.70;99.90;;;;;;5032281;28;20044;-57
2021/10/10 03:01:02;;;;;;;35.75;18.52;;;5.70;99.90;;;;;;5031763;28;20091;-55
2021/10/10 03:03:27;;;;;;;30.10;17.17;;;5.70;99.90;;;;;;5033557;28;20075;-59
2021/10/10 03:05:53;;;;;;;33.33;19.20;;;5.70;99.90;;;;;;5033348;28;20064;-58
2021/10/10 03:08:19;;;;;;;33.55;18.33;;;5.70;99.90;;;;;;5032106;28;20021;-59
2021/10/10 03:10:44;;;;;;;39.17;19.75;;;5.60;99.90;;;;;;5033042;28;20107;-59
2021/10/10 03:13:10;;;;;;;34.65;18.25;;;5.60;99.90;;;;;;5032030;28;20045;-58
2021/10/10 03:15:38;;;;;;;31.92;18.42;;;5.60;99.90;;;;;;5033076;28;20535;-53
2021/10/10 03:18:04;;;;;;;33.63;18.05;;;5.60;99.90;;;;;;5033202;28;20100;-59
2021/10/10 03:20:30;;;;;;;36.53;19.77;;;5.50;99.90;;;;;;5032859;28;20120;-58
2021/10/10 03:22:55;;;;;;;36.15;18.73;;;5.50;99.90;;;;;;5032093;28;20021;-58
2021/10/10 03:25:21;;;;;;;34.10;18.48;;;5.50;99.90;;;;;;5033254;28;20018;-58
2021/10/10 03:27:47;;;;;;;37.05;20.98;;;5.50;99.90;;;;;;5033369;28;20528;-55
2021/10/10 03:30:12;;;;;;;45.13;20.88;;;5.50;99.90;;;;;;5031604;28;20025;-57
2021/10/10 03:32:38;;;;;;;34.33;19.77;;;5.50;99.90;;;;;;5032928;28;20108;-58
2021/10/10 03:35:05;;;;;;;37.42;19.98;;;5.50;99.90;;;;;;5033303;28;20032;-57
2021/10/10 03:37:31;;;;;;;35.80;19.63;;;5.40;99.90;;;;;;5031901;28;20040;-58
2021/10/10 03:39:56;;;;;;;37.67;19.15;;;5.40;99.90;;;;;;5032526;28;20025;-60
2021/10/10 03:42:23;;;;;;;36.58;19.48;;;5.30;99.90;;;;;;5031266;28;20022;-60
2021/10/10 03:44:48;;;;;;;35.03;19.30;;;5.40;99.90;;;;;;5032638;28;20392;-60
2021/10/10 03:47:15;;;;;;;34.78;18.35;;;5.40;99.90;;;;;;5031274;28;20021;-60
2021/10/10 03:49:42;;;;;;;36.92;19.80;;;5.40;99.90;;;;;;5031276;28;20072;-55
2021/10/10 03:52:08;;;;;;;35.50;18.83;;;5.40;99.90;;;;;;5032522;28;20104;-59
2021/10/10 03:55:28;;;;;;;34.03;19.75;;;5.30;99.90;;;;;;5032465;28;20339;-59
2021/10/10 03:57:24;;;;;;;36.70;19.38;;;5.40;99.90;;;;;;5028397;28;20037;-59
2021/10/10 03:59:56;;;;;;;33.17;18.65;;;5.40;99.90;;;;;;5032122;28;20026;-60
2021/10/10 04:02:22;;;;;;;32.85;18.55;;;5.40;99.90;;;;;;5031084;28;20075;-60
2021/10/10 04:04:48;;;;;;;35.90;18.70;;;5.30;99.90;;;;;;5032362;28;20018;-60
2021/10/10 04:07:15;;;;;;;34.70;19.58;;;5.30;99.90;;;;;;5032383;28;20023;-58
2021/10/10 04:09:41;;;;;;;36.15;18.20;;;5.30;99.90;;;;;;5031976;28;20022;-60
2021/10/10 04:12:06;;;;;;;40.20;18.77;;;5.30;99.90;;;;;;5032021;28;20025;-59
2021/10/10 04:14:32;;;;;;;32.58;19.13;;;5.30;99.90;;;;;;5032080;28;20041;-60
2021/10/10 04:16:58;;;;;;;34.22;18.77;;;5.30;99.90;;;;;;5032374;28;20025;-57
2021/10/10 04:19:23;;;;;;;33.13;18.42;;;5.20;99.90;;;;;;5032167;28;20539;-59
2021/10/10 04:21:49;;;;;;;33.88;18.65;;;5.20;99.90;;;;;;5030559;28;20029;-60
2021/10/10 04:24:14;;;;;;;33.90;19.42;;;5.20;99.90;;;;;;5030718;28;20112;-60
2021/10/10 04:26:40;;;;;;;35.17;19.23;;;5.20;99.90;;;;;;5030993;28;20524;-60
2021/10/10 04:29:06;;;;;;;35.03;17.95;;;5.20;99.90;;;;;;5031934;28;20021;-58
2021/10/10 04:31:31;;;;;;;37.95;20.23;;;5.20;99.90;;;;;;5031876;28;20030;-60
2021/10/10 04:33:57;;;;;;;35.17;20.25;;;5.10;99.90;;;;;;5032028;28;20033;-58
2021/10/10 04:36:22;;;;;;;35.17;18.70;;;5.10;99.90;;;;;;5031939;28;20051;-57
2021/10/10 04:38:48;;;;;;;35.88;19.30;;;5.10;99.90;;;;;;5031744;28;20163;-58
2021/10/10 04:41:14;;;;;;;34.20;19.70;;;5.00;99.90;;;;;;5031726;28;20018;-58
2021/10/10 04:43:39;;;;;;;34.25;20.17;;;5.00;99.90;;;;;;5032113;28;20030;-58
2021/10/10 04:46:05;;;;;;;34.83;19.10;;;4.90;99.90;;;;;;5032073;28;20555;-56
2021/10/10 04:48:31;;;;;;;39.35;21.50;;;5.00;99.90;;;;;;5032027;28;20049;-59
2021/10/10 04:50:56;;;;;;;38.60;21.60;;;5.00;99.90;;;;;;5031792;28;20033;-59
2021/10/10 04:53:22;;;;;;;37.60;19.92;;;5.00;99.90;;;;;;5035655;28;20117;-59
2021/10/10 04:55:48;;;;;;;41.78;23.23;;;;;;;;;;5036097;28;20022;-58
2021/10/10 04:58:14;;;;;;;36.17;19.45;;;;;;;;;;5035761;28;20026;-57
2021/10/10 05:00:40;;;;;;;38.83;20.75;;;;;;;;;;5035406;28;20032;-58
2021/10/10 05:03:06;;;;;;;36.40;21.98;;;;;;;;;;5035977;28;20017;-57
2021/10/10 05:05:32;;;;;;;37.72;20.63;;;;;;;;;;5035785;28;20121;-57
2021/10/10 05:07:58;;;;;;;37.72;20.70;;;;;;;;;;5034410;28;20531;-56
2021/10/10 05:10:24;;;;;;;39.95;22.50;;;;;;;;;;5035156;28;20044;-59
2021/10/10 05:12:50;;;;;;;36.20;19.77;;;;;;;;;;5035574;28;20064;-57
2021/10/10 05:15:16;;;;;;;38.53;21.02;;;;;;;;;;5035635;28;20459;-58
2021/10/10 05:17:42;;;;;;;36.53;21.05;;;;;;;;;;5034245;28;20025;-59
2021/10/10 05:20:08;;;;;;;35.85;19.98;;;;;;;;;;5035046;28;20060;-54
2021/10/10 05:22:34;;;;;;;34.88;20.92;;;;;;;;;;5035106;28;20388;-57
2021/10/10 05:25:00;;;;;;;40.78;21.85;;;;;;;;;;5035278;28;20029;-57
2021/10/10 05:27:27;;;;;;;34.00;18.98;;;;;;;;;;5033971;28;20025;-59
2021/10/10 05:29:53;;;;;;;38.78;22.15;;;;;;;;;;5035015;28;20492;-59
2021/10/10 05:32:19;;;;;;;36.33;20.60;;;;;;;;;;5033851;28;20132;-58
2021/10/10 05:34:45;;;;;;;40.47;22.33;;;;;;;;;;5034659;28;20068;-59
2021/10/10 05:37:11;;;;;;;35.00;19.60;;;;;;;;;;5030247;28;20142;-58
2021/10/10 05:39:37;;;;;;;35.25;18.80;;;;;;;;;;5016752;28;20076;-60
2021/10/10 05:42:03;;;;;;;32.50;18.83;;;;;;;;;;5034638;28;20053;-59
2021/10/10 05:44:29;;;;;;;36.53;18.92;;;;;;;;;;5025753;28;20112;-59
2021/10/10 05:46:55;;;;;;;36.95;19.77;;;;;;;;;;5015192;28;20057;-59
2021/10/10 05:49:21;;;;;;;37.13;19.58;;;;;;;;;;5013883;28;20030;-58
2021/10/10 05:51:47;;;;;;;36.58;19.80;;;;;;;;;;5014768;28;20079;-55
2021/10/10 05:54:15;;;;;;;38.03;21.27;;;;;;;;;;5031315;28;20036;-57
2021/10/10 05:56:41;;;;;;;;;;;;;;;;;;5033894;28;20028;-57
2021/10/10 05:59:09;;;;;;;36.30;19.95;;;;;;;;;;5034413;28;19905;-58
2021/10/10 06:01:35;;;;;;;31.50;17.80;;;;;;;;;;5034420;28;20022;-54
2021/10/10 06:04:04;;;;;;;35.08;20.02;;;;;;;;;;5033736;28;20385;-57
2021/10/10 06:06:30;;;;;;;36.40;19.02;;;;;;;;;;5033193;28;20022;-59
2021/10/10 06:08:56;;;;;;;36.28;20.00;;;;;;;;;;5034383;28;20049;-58
2021/10/10 06:11:23;;;;;;;35.83;19.95;;;;;;;;;;5015799;28;20486;-58
2021/10/10 06:13:49;;;;;;;39.92;21.65;;;;;;;;;;5014572;28;20021;-58
2021/10/10 06:16:15;;;;;;;38.55;19.95;;;;;;;;;;5014487;28;20560;-59
2021/10/10 06:18:42;;;;;;;39.22;20.23;;;;;;;;;;5013282;28;20084;-59
2021/10/10 06:21:08;;;;;;;34.42;20.60;;;;;;;;;;5027029;28;20088;-60
2021/10/10 06:23:34;;;;;;;33.25;19.92;;;;;;;;;;5030994;28;20105;-59
2021/10/10 06:26:00;;;;;;;36.83;21.48;;;;;;;;;;5021234;28;20124;-59
2021/10/10 06:28:25;;;;;;;42.60;21.50;;;;;;;;;;5023208;28;20144;-59
2021/10/10 06:30:53;;;;;;;36.95;19.48;;;;;;;;;;5023001;28;20033;-59
2021/10/10 06:33:19;;;;;;;33.90;19.58;;;;;;;;;;5022700;28;20021;-59
2021/10/10 06:35:45;;;;;;;37.55;21.52;;;;;;;;;;5022131;28;20522;-57
2021/10/10 06:38:11;;;;;;;42.83;23.05;;;;;;;;;;5026395;28;20061;-60
2021/10/10 06:40:38;;;;;;;43.70;24.70;;;;;;;;;;5023633;28;20508;-60
2021/10/10 06:43:04;;;;;;;45.10;25.70;;;;;;;;;;5022075;28;20018;-59
2021/10/10 06:45:30;;;;;;;43.03;22.70;;;;;;;;;;5015630;28;20105;-59
2021/10/10 06:47:56;;;;;;;44.40;24.85;;;;;;;;;;5029597;28;20456;-60
2021/10/10 06:50:22;;;;;;;43.10;22.67;;;;;;;;;;5033250;28;20029;-60
2021/10/10 06:52:48;;;;;;;43.85;22.92;;;;;;;;;;5033401;28;20445;-59
2021/10/10 06:55:15;;;;;;;36.45;19.75;;;;;;;;;;5032815;28;20021;-61
2021/10/10 06:57:42;;;;;;;35.90;19.95;;;;;;;;;;5034037;28;20021;-59
2021/10/10 07:00:08;;;;;;;40.17;20.52;;;;;;;;;;5033179;28;20033;-58
2021/10/10 07:02:34;;;;;;;36.88;20.42;;;;;;;;;;5032046;28;20025;-58
2021/10/10 07:05:01;;;;;;;34.15;19.15;;;;;;;;;;5033376;28;20041;-58
2021/10/10 07:07:27;;;;;;;36.38;19.40;;;5.00;99.90;;;;;;5032075;28;20040;-57
2021/10/10 07:09:52;;;;;;;31.50;19.17;;;6.40;99.90;;;;;;5032894;28;20025;-60
2021/10/10 07:12:18;;;;;;;34.20;19.33;;;6.40;99.90;;;;;;5055484;22;20520;-60
2021/10/10 07:14:46;;;;;;;31.20;17.85;;;6.50;99.90;;;;;;5015629;28;20071;-61
2021/10/10 07:17:12;;;;;;;34.97;18.80;;;6.50;99.90;;;;;;5033637;28;20040;-61
2021/10/10 07:19:49;;;;;;;35.35;19.15;;;6.50;99.90;;;;;;5033090;28;20485;-62
2021/10/10 07:25:10;;;;;;;35.30;20.05;;;6.60;99.90;;;;;;5024462;28;20030;-62
2021/10/10 07:27:41;;;;;;;34.58;19.35;;;6.70;99.90;;;;;;5015961;28;20497;-62
2021/10/10 07:30:09;;;;;;;34.10;18.42;;;6.80;99.90;;;;;;5033266;28;20022;-62
2021/10/10 07:32:36;;;;;;;32.80;18.38;;;;;;;;;;5014813;28;20026;-61
2021/10/10 07:35:03;;;;;;;31.65;17.48;;;;;;;;;;5015440;28;20428;-61
2021/10/10 07:37:29;;;;;;;32.50;18.13;;;;;;;;;;5019740;28;20021;-61
2021/10/10 07:39:55;;;;;;;30.83;17.95;;;;;;;;;;5053305;28;20155;-63
2021/10/10 07:42:21;;;;;;;32.33;17.45;;;;;;;;;;5053345;28;20320;-60
2021/10/10 07:44:50;;;;;;;32.45;18.48;;;;;;;;;;5052866;28;20073;-62
2021/10/10 07:47:17;;;;;;;;;;;;;;;;;;5053202;28;20104;-62
2021/10/10 07:49:44;;;;;;;30.08;17.02;;;;;;;;;;5052388;28;20371;-61
2021/10/10 07:52:11;;;;;;;32.88;18.95;;;;;;;;;;5034141;28;20381;-61
2021/10/10 07:54:37;;;;;;;31.55;17.27;;;;;;;;;;5052641;28;20025;-63
2021/10/10 07:57:03;;;;;;;28.92;16.80;;;;;;;;;;5034773;28;20033;-62
2021/10/10 07:59:29;;;;;;;29.08;16.52;;;;;;;;;;5034309;28;20025;-59
2021/10/10 08:01:55;;;;;;;29.73;17.40;;;;;;;;;;5052497;28;20388;-62
2021/10/10 08:04:23;;;;;;;30.88;17.55;;;;;;;;;;5052380;28;20025;-61
2021/10/10 08:06:49;;;;;;;31.30;17.90;;;;;;;;;;5052320;28;20079;-62
2021/10/10 08:09:16;;;;;;;30.65;17.90;;;;;;;;;;5052294;28;20096;-61
2021/10/10 08:11:43;;;;;;;31.98;18.58;;;;;;;;;;5033951;28;20070;-61
2021/10/10 08:14:10;;;;;;;29.25;17.23;;;;;;;;;;5036198;28;20056;-61
2021/10/10 08:16:36;;;;;;;30.05;17.45;;;;;;;;;;5014182;28;20030;-62
2021/10/10 08:19:02;;;;;;;29.23;17.42;;;;;;;;;;5031772;28;20072;-61
2021/10/10 08:21:29;;;;;;;28.63;16.67;;;;;;;;;;5031834;28;20021;-62
2021/10/10 08:23:56;;;;;;;31.08;16.08;;;;;;;;;;5031512;28;20542;-61
2021/10/10 08:26:24;;;;;;;27.77;16.88;;;;;;;;;;5031206;28;20032;-61
2021/10/10 08:28:50;;;;;;;32.33;17.23;;;;;;;;;;5014100;28;20025;-61
2021/10/10 08:31:16;;;;;;;28.08;16.02;;;;;;;;;;5031413;28;20028;-62
2021/10/10 08:33:42;;;;;;;27.27;16.13;;;;;;;;;;5031716;28;20400;-57
2021/10/10 08:36:08;;;;;;;28.65;15.35;;;;;;;;;;5013731;28;20116;-61
2021/10/10 08:38:35;;;;;;;27.23;15.13;;;;;;;;;;5032761;28;20028;-61
2021/10/10 08:41:01;;;;;;;26.92;16.08;;;;;;;;;;5013862;28;20021;-61
2021/10/10 08:43:30;;;;;;;26.38;14.55;;;;;;;;;;5031534;28;20025;-60
2021/10/10 08:45:56;;;;;;;29.95;13.82;;;;;;;;;;5031903;28;20029;-61
2021/10/10 08:48:22;;;;;;;27.30;15.68;;;;;;;;;;5032538;28;20053;-61
2021/10/10 08:50:48;;;;;;;25.92;14.80;;;;;;;;;;5031503;28;20021;-61
2021/10/10 08:53:18;;;;;;;26.17;15.18;;;;;;;;;;5031884;28;20061;-62
2021/10/10 08:55:44;;;;;;;25.45;14.40;;;;;;;;;;5014220;28;20058;-60
2021/10/10 08:58:10;;;;;;;29.00;15.20;;;;;;;;;;5031852;28;20239;-62
2021/10/10 09:00:40;;;;;;;26.55;15.23;;;;;;;;;;5031716;28;20030;-61
2021/10/10 09:03:11;;;;;;;27.50;16.40;;;;;;;;;;5014280;28;20053;-61
2021/10/10 09:05:37;;;;;;;26.52;15.77;;;;;;;;;;5031651;28;20029;-62
2021/10/10 09:08:03;;;;;;;28.33;16.55;;;;;;;;;;5031886;28;20056;-62
2021/10/10 09:10:31;;;;;;;27.25;18.23;;;;;;;;;;5014074;28;20051;-62
2021/10/10 09:13:06;;;;;;;27.98;16.75;;;;;;;;;;5031463;28;20469;-61
2021/10/10 09:15:33;;;;;;;25.35;16.13;;;;;;;;;;5029624;28;20039;-61
2021/10/10 09:18:00;;;;;;;25.65;16.33;;;;;;;;;;5014046;28;20481;-62
2021/10/10 09:20:36;;;;;;;26.65;16.75;;;;;;;;;;5031372;28;20056;-62
2021/10/10 09:23:03;;;;;;;26.17;17.15;;;;;;;;;;5014109;28;20075;-61
2021/10/10 09:25:30;;;;;;;25.55;15.73;;;;;;;;;;5013846;28;20026;-60
2021/10/10 09:28:03;;;;;;;27.73;17.92;;;;;;;;;;5031779;28;20335;-61
2021/10/10 09:30:29;;;;;;;26.00;16.65;;;;;;;;;;5013750;28;20029;-62
2021/10/10 09:33:00;;;;;;;29.15;17.33;;;;;;;;;;5031434;28;20021;-61
2021/10/10 09:35:29;;;;;;;26.25;16.65;;;;;;;;;;5011929;28;20034;-61
2021/10/10 09:38:13;;;;;;;23.88;14.70;;;;;;;;;;5019383;28;20026;-62
2021/10/10 09:40:49;;;;;;;25.05;17.30;;;;;;;;;;5035439;28;20026;-60
2021/10/10 09:43:15;;;;;;;28.05;17.58;;;;;;;;;;5017772;28;20026;-61
2021/10/10 09:48:07;;;;;;;25.00;16.35;;;;;;;;;;5035201;28;20072;-60
2021/10/10 09:50:35;;;;;;;23.48;15.68;;;;;;;;;;5016909;28;20049;-61
2021/10/10 09:53:04;;;;;;;24.95;15.00;;;;;;;;;;5034767;28;20029;-61
2021/10/10 09:55:31;;;;;;;24.17;16.15;;;;;;;;;;5034978;28;20029;-62
2021/10/10 09:57:57;;;;;;;25.70;15.52;;;;;;;;;;5017447;28;20029;-59
2021/10/10 10:00:34;;;;;;;25.02;15.27;;;6.90;99.90;;;;;;5016604;28;20374;-64
2021/10/10 10:03:09;;;;;;;21.70;14.38;;;13.50;99.90;;;;;;5016873;28;20112;-64
2021/10/10 10:05:36;;;;;;;24.05;15.20;;;13.50;99.90;;;;;;5034581;28;20013;-64
2021/10/10 10:08:02;;;;;;;23.00;15.13;;;13.40;99.90;;;;;;5034326;28;20048;-64
2021/10/10 10:10:30;;;;;;;24.50;15.23;;;13.30;99.90;;;;;;5034145;28;20040;-64
2021/10/10 10:12:57;;;;;;;24.50;15.20;;;13.40;99.90;;;;;;5034226;28;20037;-64
2021/10/10 10:15:33;;;;;;;24.38;15.52;;;13.50;99.90;;;;;;5034536;28;20420;-63
2021/10/10 10:18:00;;;;;;;24.10;15.15;;;13.50;99.90;;;;;;5016564;28;20026;-64
2021/10/10 10:20:27;;;;;;;28.77;17.05;;;;;;;;;;5015658;28;20032;-62
2021/10/10 10:22:54;;;;;;;25.80;16.27;;;;;;;;;;5033967;28;20053;-63
2021/10/10 10:25:21;;;;;;;25.10;16.30;;;;;;;;;;5016295;28;20040;-64
2021/10/10 10:27:49;;;;;;;26.45;16.33;;;;;;;;;;5034112;28;20147;-62
2021/10/10 10:30:15;;;;;;;25.45;16.35;;;;;;;;;;5016130;28;20375;-64
2021/10/10 10:32:41;;;;;;;26.92;16.98;;;;;;;;;;5016168;28;20026;-64
2021/10/10 10:35:11;;;;;;;28.65;16.30;;;;;;;;;;5016206;28;20025;-63
2021/10/10 10:37:43;;;;;;;23.70;15.57;;;;;;;;;;5016115;28;20021;-63
2021/10/10 10:40:15;;;;;;;24.70;16.63;;;13.70;99.90;;;;;;5033591;28;20028;-63
2021/10/10 10:43:04;;;;;;;30.15;17.20;;;;;;;;;;5016060;28;20516;-62
2021/10/10 10:45:32;;;;;;;27.38;17.15;;;;;;;;;;5034134;28;20025;-63
2021/10/10 10:48:05;;;;;;;24.35;17.42;;;;;;;;;;5034055;28;20148;-63
2021/10/10 10:50:43;;;;;;;26.25;17.05;;;;;;;;;;5015213;28;20076;-64
2021/10/10 10:53:14;;;;;;;28.98;17.90;;;;;;;;;;5015872;28;20029;-64
2021/10/10 10:55:44;;;;;;;24.10;15.75;;;;;;;;;;5016388;28;20529;-61
2021/10/10 10:58:11;;;;;;;28.38;17.77;;;;;;;;;;5034070;28;20117;-64
2021/10/10 11:00:40;;;;;;;24.90;17.67;;;;;;;;;;5015928;28;20471;-63
2021/10/10 11:03:10;;;;;;;25.27;18.05;;;;;;;;;;5015624;28;20017;-63
2021/10/10 11:05:45;;;;;;;26.58;19.95;;;;;;;;;;5015386;28;20021;-64
2021/10/10 11:08:17;;;;;;;25.50;19.08;;;;;;;;;;5014964;28;20021;-63
2021/10/10 11:11:13;;;;;;;25.55;18.52;;;;;;;;;;5029839;28;20428;-64
2021/10/10 11:13:43;;;;;;;27.42;19.98;;;;;;;;;;5014351;28;20042;-64
2021/10/10 11:16:19;;;;;;;27.02;19.73;;;;;;;;;;5015440;28;20018;-63
2021/10/10 11:18:46;;;;;;;25.40;19.50;;;;;;;;;;5012906;28;20068;-62
2021/10/10 11:21:13;;;;;;;26.20;19.50;;;;;;;;;;5014533;28;20519;-64
2021/10/10 11:23:39;;;;;;;27.75;20.10;;;;;;;;;;5032479;28;20511;-65
2021/10/10 11:26:06;;;;;;;26.08;19.40;;;;;;;;;;5033067;28;20044;-65
2021/10/10 11:28:40;;;;;;;26.05;19.38;;;;;;;;;;5015200;28;20103;-62
2021/10/10 11:31:10;;;;;;;26.40;19.77;;;;;;;;;;5014890;28;20067;-64
2021/10/10 11:33:41;;;;;;;28.15;19.75;;;;;;;;;;5015035;28;20029;-63
2021/10/10 11:36:07;;;;;;;24.55;19.92;;;;;;;;;;5032887;28;20021;-64
2021/10/10 11:38:47;;;;;;;26.38;19.25;;;;;;;;;;5027491;28;20036;-56
2021/10/10 11:41:12;;;;;;;23.88;18.75;;;;;;;;;;5052366;28;20444;-65
2021/10/10 11:43:38;;;;;;;24.25;19.20;;;;;;;;;;5052465;28;20021;-63
2021/10/10 11:46:05;;;;;;;26.23;19.65;;;;;;;;;;5052457;28;20493;-63
2021/10/10 11:48:32;;;;;;;24.42;19.80;;;;;;;;;;5052365;28;20098;-62
2021/10/10 11:50:58;;;;;;;23.27;19.00;;;;;;;;;;5051998;28;20108;-64
2021/10/10 11:53:34;;;;;;;26.52;19.80;;;;;;;;;;5052081;28;20396;-64
2021/10/10 11:56:03;;;;;;;25.02;19.55;;;;;;;;;;5034117;28;20040;-64
2021/10/10 11:58:31;;;;;;;26.40;19.70;;;;;;;;;;5052251;28;20064;-61
2021/10/10 12:01:08;;;;;;;25.33;20.52;;;;;;;;;;5051433;28;20032;-64
2021/10/10 12:03:34;;;;;;;25.33;18.95;;;;;;;;;;5051823;28;20056;-62
2021/10/10 12:06:00;;;;;;;26.52;19.70;;;;;;;;;;5052284;28;20166;-63
2021/10/10 12:08:26;;;;;;;27.33;20.17;;;;;;;;;;5034056;28;20453;-62
2021/10/10 12:10:52;;;;;;;25.80;19.60;;;;;;;;;;5033740;28;20075;-63
2021/10/10 12:13:19;;;;;;;24.58;19.85;;;;;;;;;;5051936;28;20028;-63
2021/10/10 12:15:57;;;;;;;25.13;18.75;;;;;;;;;;5052253;28;20032;-64
2021/10/10 12:18:27;;;;;;;23.95;19.23;;;;;;;;;;5052245;28;20056;-64
2021/10/10 12:21:13;;;;;;;24.08;19.55;;;;;;;;;;5033535;28;20527;-63
2021/10/10 12:23:41;;;;;;;27.58;19.23;;;;;;;;;;5052195;28;20151;-61
2021/10/10 12:26:09;;;;;;;26.05;18.05;;;;;;;;;;5035019;28;20028;-63
2021/10/10 12:28:35;;;;;;;;;;;;;;;;;;5053062;28;20013;-63
2021/10/10 12:31:01;;;;;;;24.98;19.13;;;;;;;;;;5052092;28;19963;-63
2021/10/10 12:33:30;;;;;;;26.85;19.20;;;;;;;;;;5051749;28;20021;-64
2021/10/10 12:35:57;;;;;;;23.13;18.17;;;;;;;;;;5033916;28;20116;-63
2021/10/10 12:38:46;;;;;;;23.70;19.13;;;;;;;;;;5034020;28;20037;-64
2021/10/10 12:41:21;;;;;;;23.30;18.67;;;;;;;;;;5021271;28;20055;-62
2021/10/10 12:43:49;;;;;;;24.70;18.75;;;;;;;;;;5033846;28;20098;-61
2021/10/10 12:46:16;;;;;;;24.80;19.10;;;;;;;;;;5051825;28;20480;-61
2021/10/10 12:48:42;;;;;;;25.83;18.67;;;;;;;;;;5051590;28;20028;-60
2021/10/10 12:51:16;;;;;;;25.15;19.42;;;;;;;;;;5033603;28;20070;-61
2021/10/10 12:53:42;;;;;;;26.13;19.92;;;;;;;;;;5052112;28;20376;-61
2021/10/10 12:56:14;;;;;;;24.63;19.92;;;;;;;;;;5033531;28;20021;-58
2021/10/10 12:58:49;;;;;;;25.38;19.45;;;;;;;;;;5051536;28;20151;-60
2021/10/10 13:01:15;;;;;;;25.88;19.25;;;;;;;;;;5051332;28;20032;-61
2021/10/10 13:03:41;;;;;;;24.77;19.55;;;;;;;;;;5051578;28;20484;-61
2021/10/10 13:06:07;;;;;;;24.70;19.42;;;;;;;;;;5051552;28;20021;-62
2021/10/10 13:08:45;;;;;;;23.75;19.75;;;;;;;;;;5033638;28;20025;-60
2021/10/10 13:11:11;;;;;;;24.07;19.73;;;;;;;;;;5056683;22;20029;-66
2021/10/10 13:13:37;;;;;;;26.30;19.88;;;;;;;;;;5010754;28;20300;-67
2021/10/10 13:16:03;;;;;;;23.42;19.80;;;;;;;;;;5029621;28;20026;-67
2021/10/10 13:18:29;;;;;;;22.27;18.60;;;;;;;;;;5014233;28;20465;-65
2021/10/10 13:20:55;;;;;;;26.40;20.10;;;;;;;;;;5029707;28;20117;-64
2021/10/10 13:23:21;;;;;;;25.73;20.00;;;;;;;;;;5014152;28;20062;-65
2021/10/10 13:25:47;;;;;;;25.42;19.92;;;;;;;;;;5014108;28;20022;-64
2021/10/10 13:28:13;;;;;;;24.65;20.08;;;;;;;;;;5012511;28;20450;-63
2021/10/10 13:30:39;;;;;;;23.10;19.67;;;;;;;;;;5012431;28;20125;-65
2021/10/10 13:33:05;;;;;;;26.67;20.55;;;;;;;;;;5012843;28;20033;-65
2021/10/10 13:35:31;;;;;;;27.00;20.30;;;;;;;;;;5013951;28;20509;-66
2021/10/10 13:38:00;;;;;;;23.88;18.98;;;;;;;;;;5012396;28;20120;-66
2021/10/10 13:40:26;;;;;;;24.75;20.10;;;;;;;;;;5014054;28;20052;-66
2021/10/10 13:42:51;;;;;;;24.17;20.02;;;;;;;;;;5013650;28;20446;-65
2021/10/10 13:45:18;;;;;;;25.20;20.15;;;;;;;;;;5013683;28;20065;-65
2021/10/10 13:47:44;;;;;;;22.38;18.48;;;;;;;;;;5013359;28;20026;-65
2021/10/10 13:50:10;;;;;;;24.08;18.45;;;;;;;;;;5012179;28;20022;-65